Portada
METAR-TAF:

METAR-TAF

Aeroports :

Doha, Qatar

latitud: 25-15-40N, longitud: 051-33-54E, altitud: 11 m

Observació

L'informe es va fer fa 1 hora i 2 minuts, a les 23:00 UTC
Vent 7 kt del Oest/Nord-Oest, variant entre Oest/Sud-Oest i Nord-Oest
Temperatura 19°C
Humitat 60%
Pressió 1018 hPa
Visibilitat 10 km o més
sense núvols per sota de 1500 mi sense presència de cumulonimbus.

METAR: OTBD 212300Z 29007KT 250V320 CAVOK 19/11 Q1018 NOSIG

Hora: 03:02 (00:02 UTC)

Pronòstic

L'informe es va fer fa 6 hores i 59 minuts, a les 17:03 UTC
Pronòstic vàlid del 21 a les 18 UTC al 22 a les 24 UTC
Vent 12 kt del Oest/Nord-Oest
Visibilitat: 9000 m

TAF: OTBD 211703Z 2118/2224 30012KT 9000 NSC

Observacions i pronòstics meteorològics de més de 4000 aeroports (METAR i TAF).

Les estacions disponibles són els punts grocs i vermells al mapa.

Posi el ratolí al punt desitjat per veure el nom de l'estació.

Feu clic per veure les observacions i els pronòstics meteorològics.

Per canviar el mapa: feu clic els botons verds amb una creu de color negre per apropar; al botó verd amb un guió per allunyar la imatge; o en les fletxes verdes per a mapes adjacents.


METAR-TAF: